Surface observations / UK / EGMC

Quebec | Canada | USA | France | UK | Europe | Elsewhere

Display: Info & Location for EGMC | Help decoding METAR

EGMC SOUTHEND-ON-SEA -- UK
Raw surface observations for station EGMC
EGMC 292220Z 34003KT CAVOK 17/14 Q1015=
EGMC 292150Z 36004KT CAVOK 17/14 Q1015=
EGMC 292120Z 36002KT CAVOK 18/15 Q1015=
EGMC 292050Z VRB03KT CAVOK 18/15 Q1014=
EGMC 292020Z VRB02KT CAVOK 18/15 Q1014=
EGMC 291950Z VRB03KT CAVOK 19/15 Q1014=
EGMC 291920Z 12005KT CAVOK 19/15 Q1014=
EGMC 291850Z 10006KT CAVOK 20/16 Q1014=
EGMC 291750Z 10008KT CAVOK 21/16 Q1014=
EGMC 291720Z 10007KT CAVOK 22/16 Q1014=
EGMC 291650Z 11006KT CAVOK 24/15 Q1013=
EGMC 291620Z 07005KT CAVOK 25/14 Q1013=
EGMC 291550Z 01004KT CAVOK 26/14 Q1014=
EGMC 291520Z 33006KT 290V010 CAVOK 26/09 Q1014=
EGMC 291450Z 34005KT 310V040 CAVOK 25/11 Q1014=
EGMC 291420Z 30006KT 240V020 CAVOK 25/10 Q1014=
EGMC 291350Z 35005KT 9999 FEW030 25/11 Q1014=
EGMC 291320Z 34004KT CAVOK 24/10 Q1015=
EGMC 291250Z 35006KT 320V020 CAVOK 24/11 Q1015=
EGMC 291220Z 35008KT 320V020 CAVOK 24/12 Q1015=
EGMC 291150Z 34007KT CAVOK 24/12 Q1015=
EGMC 291120Z 35008KT 9999 FEW030 23/12 Q1015=
EGMC 291050Z 34007KT 9999 FEW030 21/12 Q1016=
EGMC 291020Z 34007KT 9999 FEW024 21/14 Q1016=
EGMC 290950Z 34007KT 320V020 9999 FEW024 21/14 Q1015=
EGMC 290920Z 35009KT 9999 FEW020 20/14 Q1015=
EGMC 290850Z 35008KT 9999 FEW020 20/14 Q1015=
EGMC 290820Z 35009KT 9999 FEW017 20/15 Q1015=
EGMC 290750Z 36008KT 9999 FEW012 19/15 Q1016=
EGMC 290720Z 35009KT 310V010 9999 FEW012 18/15 Q1016=
EGMC 290650Z 34007KT 310V020 9999 FEW015 18/15 Q1015=
EGMC 290620Z 35009KT 300V010 CAVOK 17/15 Q1015=
EGMC 290550Z 34009KT CAVOK 16/14 Q1015=
EGMC 290520Z 35008KT CAVOK 16/14 Q1015=
EGMC 290450Z 35010KT CAVOK 15/13 Q1015=
EGMC 290420Z 34005KT CAVOK 16/14 Q1015=
EGMC 290350Z 34005KT 9000 FEW020 BKN042 16/14 Q1015=
EGMC 290250Z 34005KT 9000 FEW020 BKN042 16/14 Q1015=
EGMC 290150Z 34005KT 9000 FEW013 BKN026 17/15 Q1015=
EGMC 290050Z 34005KT 8000 RA FEW012 BKN030 16/14 Q1015=
EGMC 282350Z 34005KT 8000 RA FEW007 BKN017 16/15 Q1015=
EGMC 282250Z 34005KT 9999 -RA FEW017 BKN027 16/15 Q1016=
EGMC 282220Z 34005KT 9999 -RA FEW017 BKN033 16/14 Q1015=